Time;durP1;ratioP1;P1;durP2;ratioP2;P2;SDS_P1;SDS_P2;PMS_P1;PMS_P2;Temp;Humidity;BMP_temperature;BMP_pressure;BME280_temperature;BME280_humidity;BME280_pressure;Samples;Min_cycle;Max_cycle;Signal;HPM_P1;HPM_P2
2022/09/11 00:00:59;;;;;;;3.30;1.10;;;;;;;12.84;78.17;94105.69;5011384;28;20057;-64
2022/09/11 00:03:27;;;;;;;2.57;1.00;;;;;;;12.90;78.42;94099.25;5011363;28;20407;-68
2022/09/11 00:05:53;;;;;;;3.38;1.23;;;;;;;12.92;78.39;94094.09;5011239;28;20509;-64
2022/09/11 00:08:20;;;;;;;2.40;1.10;;;;;;;12.63;80.08;94090.38;5011830;28;20105;-64
2022/09/11 00:10:48;;;;;;;4.22;1.35;;;;;;;12.50;81.29;94085.53;5011409;28;20481;-63
2022/09/11 00:13:20;;;;;;;2.22;1.00;;;;;;;12.51;81.16;94083.53;5011047;28;20715;-63
2022/09/11 00:15:49;;;;;;;2.90;1.10;;;;;;;12.26;80.92;94082.06;5011253;28;20057;-64
2022/09/11 00:18:20;;;;;;;3.50;0.75;;;;;;;12.29;81.23;94083.94;5010773;28;20661;-63
2022/09/11 00:20:57;;;;;;;3.22;1.00;;;;;;;12.18;81.51;94086.91;5011156;28;20849;-68
2022/09/11 00:23:25;;;;;;;3.20;1.10;;;;;;;12.18;81.26;94083.41;5010659;28;20193;-66
2022/09/11 00:25:52;;;;;;;2.30;1.13;;;;;;;12.11;81.88;94080.75;5010491;28;20046;-68
2022/09/11 00:28:24;;;;;;;3.97;1.20;;;;;;;12.07;81.86;94088.31;5011296;28;20046;-66
2022/09/11 00:31:03;;;;;;;78.45;45.85;;;;;;;12.06;81.56;94093.03;5010524;28;20049;-66
2022/09/11 00:33:32;;;;;;;9.68;5.53;;;;;;;12.13;81.54;94092.13;5010941;28;20072;-63
2022/09/11 00:36:02;;;;;;;3.17;1.20;;;;;;;12.09;81.38;94091.41;5010848;28;20042;-63
2022/09/11 00:38:32;;;;;;;3.88;1.05;;;;;;;12.08;81.90;94085.13;5010999;28;20423;-70
2022/09/11 00:41:00;;;;;;;3.27;1.13;;;;;;;11.97;82.33;94081.78;5010428;28;20420;-66
2022/09/11 00:43:28;;;;;;;2.15;1.00;;;;;;;12.05;82.10;94087.94;5009850;28;20407;-68
2022/09/11 00:46:03;;;;;;;3.92;1.10;;;;;;;11.95;83.01;94079.50;5010530;28;20045;-67
2022/09/11 00:48:34;;;;;;;2.10;0.90;;;;;;;11.77;83.50;94077.03;5007665;28;20515;-64
2022/09/11 00:51:03;;;;;;;5.18;1.27;;;;;;;11.59;84.68;94080.06;5010430;28;20414;-64
2022/09/11 00:53:35;;;;;;;3.50;1.17;;;;;;;11.68;84.80;94078.75;5010888;28;20080;-73
2022/09/11 00:56:06;;;;;;;3.42;1.13;;;;;;;11.67;85.05;94072.47;5009131;28;20073;-64
2022/09/11 00:58:37;;;;;;;4.00;1.30;;;;;;;11.71;84.54;94077.91;5010666;28;20042;-63
2022/09/11 01:01:04;;;;;;;2.65;1.10;;;;;;;11.89;82.83;94081.16;5010556;28;20058;-63
2022/09/11 01:03:33;;;;;;;2.80;1.20;;;;;;;12.05;81.91;94076.94;5010308;28;20050;-73
2022/09/11 01:06:00;;;;;;;5.73;2.27;;;;;;;12.19;81.11;94077.47;5010340;28;20045;-63
2022/09/11 01:08:27;;;;;;;7.45;2.65;;;;;;;12.31;80.25;94075.28;5010957;28;20042;-63
2022/09/11 01:11:19;;;;;;;2.97;1.38;;;;;;;12.41;79.79;94079.78;5009700;28;20053;-68
2022/09/11 01:14:06;;;;;;;4.60;1.10;;;;;;;12.50;78.92;94077.25;5010032;28;20042;-69
2022/09/11 01:16:50;;;;;;;3.67;1.10;;;;;;;12.54;78.93;94077.19;5009369;28;20649;-70
2022/09/11 01:19:31;;;;;;;3.40;1.03;;;;;;;12.58;78.83;94078.69;5009809;28;21635;-63
2022/09/11 01:22:26;;;;;;;2.65;0.98;;;;;;;12.68;78.24;94076.91;5010069;28;20053;-64
2022/09/11 01:25:05;;;;;;;2.72;1.10;;;;;;;12.69;78.10;94072.16;5007853;28;20057;-66
2022/09/11 01:27:42;;;;;;;5.20;1.20;;;;;;;12.73;77.68;94065.38;5010255;28;20080;-69
2022/09/11 01:30:14;;;;;;;3.67;1.20;;;;;;;12.67;77.69;94078.09;5010142;28;20069;-64
2022/09/11 01:32:47;;;;;;;3.83;1.00;;;;;;;12.71;77.80;94075.28;5008590;28;20042;-64
2022/09/11 01:35:20;;;;;;;3.25;1.10;;;;;;;12.62;78.67;94075.09;5003913;28;20046;-63
2022/09/11 01:38:13;;;;;;;2.50;1.08;;;;;;;12.71;77.94;94072.53;5010033;28;20054;-64
2022/09/11 01:40:57;;;;;;;5.45;1.38;;;;;;;12.77;78.39;94076.31;5008979;28;21621;-64
2022/09/11 01:43:28;;;;;;;2.83;1.10;;;;;;;12.71;78.30;94078.78;5006942;28;20050;-63
2022/09/11 01:46:00;;;;;;;14.30;7.60;;;;;;;12.79;77.87;94073.91;5009062;28;20376;-64
2022/09/11 01:48:37;;;;;;;3.33;1.40;;;;;;;12.73;77.72;94072.88;5010165;28;20042;-64
2022/09/11 01:51:07;;;;;;;3.20;1.38;;;;;;;12.63;78.36;94074.63;5009638;28;20052;-65
2022/09/11 01:53:37;;;;;;;3.33;1.10;;;;;;;12.56;78.41;94070.06;5009925;28;20045;-69
2022/09/11 01:56:09;;;;;;;4.40;1.48;;;;;;;12.52;78.61;94074.09;5009528;28;20053;-63
2022/09/11 01:58:36;;;;;;;3.80;1.10;;;;;;;12.41;79.27;94079.78;5009957;28;20427;-65
2022/09/11 02:01:12;;;;;;;6.70;1.27;;;;;;;12.45;78.75;94074.22;5009374;28;20058;-63
2022/09/11 02:03:44;;;;;;;2.50;1.00;;;;;;;12.30;79.53;94068.25;5009648;28;20411;-64
2022/09/11 02:06:16;;;;;;;3.50;1.13;;;;;;;12.32;79.62;94068.59;5009256;28;20400;-67
2022/09/11 02:08:48;;;;;;;2.40;1.13;;;;;;;12.43;79.44;94062.88;5009786;28;20462;-64
2022/09/11 02:11:17;;;;;;;2.50;1.20;;;;;;;12.43;79.47;94073.88;5009041;28;21654;-63
2022/09/11 02:13:49;;;;;;;3.17;1.10;;;;;;;12.46;78.90;94071.06;5009573;28;20395;-63
2022/09/11 02:16:38;;;;;;;3.15;1.15;;;;;;;12.47;79.26;94066.31;5009211;28;20444;-68
2022/09/11 02:19:10;;;;;;;3.50;1.13;;;;;;;12.45;79.21;94069.50;5009577;28;20160;-64
2022/09/11 02:21:37;;;;;;;4.10;1.50;;;;;;;12.48;79.29;94070.63;5009600;28;20048;-63
2022/09/11 02:24:04;;;;;;;2.73;1.00;;;;;;;12.48;79.28;94067.88;5009168;28;20049;-63
2022/09/11 02:26:36;;;;;;;3.13;1.20;;;;;;;12.45;79.68;94068.72;5011820;28;20080;-64
2022/09/11 02:29:04;;;;;;;3.58;1.20;;;;;;;12.37;80.31;94068.09;5013361;28;20056;-63
2022/09/11 02:31:32;;;;;;;4.40;1.50;;;;;;;12.36;79.92;94075.56;5013731;28;20407;-63
2022/09/11 02:33:59;;;;;;;3.47;1.20;;;;;;;12.42;80.24;94077.84;5012442;28;20426;-63
2022/09/11 02:36:38;;;;;;;2.93;1.20;;;;;;;12.38;80.20;94081.44;4996262;28;20050;-68
2022/09/11 02:39:15;;;;;;;3.20;1.27;;;;;;;12.29;80.42;94066.66;5012866;28;20037;-63
2022/09/11 02:42:06;;;;;;;3.65;1.30;;;;;;;12.39;79.75;94060.97;5012099;28;20069;-71
2022/09/11 02:45:01;;;;;;;2.95;1.40;;;;;;;12.31;80.52;94061.53;5027090;28;20050;-66
2022/09/11 02:47:39;;;;;;;4.18;1.20;;;;;;;12.20;80.52;94067.25;5012372;28;20166;-63
2022/09/11 02:50:18;;;;;;;3.37;1.43;;;;;;;12.20;80.80;94067.25;5012966;28;20034;-68
2022/09/11 02:52:56;;;;;;;2.50;1.30;;;;;;;12.24;80.67;94064.44;4999774;28;20400;-64
2022/09/11 02:55:31;;;;;;;3.05;1.40;;;;;;;12.36;80.27;94074.81;5012465;28;20704;-64
2022/09/11 02:58:12;;;;;;;3.80;1.40;;;;;;;12.33;80.43;94073.66;5012599;28;20052;-63
2022/09/11 03:00:39;;;;;;;3.38;1.23;;;;;;;12.37;80.28;94073.59;5012819;28;20045;-64
2022/09/11 03:03:06;;;;;;;3.20;1.20;;;;;;;12.41;79.85;94074.28;5012453;28;20482;-66
2022/09/11 03:05:33;;;;;;;3.35;1.25;;;;;;;12.44;79.94;94075.44;5012855;28;20053;-63
2022/09/11 03:08:03;;;;;;;3.00;1.40;;;;;;;12.43;79.72;94082.91;5010888;28;20064;-63
2022/09/11 03:10:29;;;;;;;3.15;1.30;;;;;;;12.39;79.83;94079.44;5012834;28;20054;-63
2022/09/11 03:12:58;;;;;;;4.65;1.60;;;;;;;12.38;79.78;94072.41;5012056;28;20415;-64
2022/09/11 03:15:26;;;;;;;4.60;1.30;;;;;;;12.45;79.86;94083.25;5012550;28;20045;-63
2022/09/11 03:17:52;;;;;;;3.88;1.30;;;;;;;12.36;79.83;94078.31;5011730;28;20422;-63
2022/09/11 03:20:20;;;;;;;3.30;1.45;;;;;;;12.44;79.85;94084.47;5012660;28;20065;-68
2022/09/11 03:22:47;;;;;;;2.97;1.30;;;;;;;12.42;79.46;94075.09;5012331;28;20042;-63
2022/09/11 03:25:14;;;;;;;3.17;1.30;;;;;;;12.36;79.77;94070.06;5012024;28;20042;-68
2022/09/11 03:27:41;;;;;;;2.90;1.30;;;;;;;12.50;79.30;94068.25;5012567;28;20048;-63
2022/09/11 03:30:09;;;;;;;3.00;1.20;;;;;;;12.47;79.50;94060.81;5011885;28;20046;-63
2022/09/11 03:32:35;;;;;;;5.18;1.30;;;;;;;12.49;78.98;94061.16;5012378;28;20048;-64
2022/09/11 03:35:02;;;;;;;4.30;1.20;;;;;;;12.39;79.69;94054.66;5011670;28;20050;-64
2022/09/11 03:37:29;;;;;;;3.45;1.33;;;;;;;12.38;80.26;94053.13;5011698;28;20056;-64
2022/09/11 03:39:55;;;;;;;3.43;1.50;;;;;;;12.36;80.10;94050.81;5011530;28;20046;-64
2022/09/11 03:42:22;;;;;;;4.93;1.40;;;;;;;12.37;79.85;94049.63;5010962;28;20045;-63
2022/09/11 03:44:48;;;;;;;6.45;3.47;;;;;;;12.46;79.74;94051.03;5011768;28;20072;-63
2022/09/11 03:47:15;;;;;;;4.32;2.00;;;;;;;12.47;79.56;94055.31;5011352;28;20773;-65
2022/09/11 03:49:42;;;;;;;3.95;1.40;;;;;;;12.46;80.12;94045.50;5011792;28;20050;-63
2022/09/11 03:52:08;;;;;;;3.10;1.20;;;;;;;12.42;79.99;94044.81;5011744;28;20057;-69
2022/09/11 03:54:35;;;;;;;3.22;1.30;;;;;;;12.49;79.34;94052.91;5012190;28;20050;-63
2022/09/11 03:57:02;;;;;;;3.42;1.40;;;;;;;12.49;79.41;94041.91;5011379;28;20502;-63
2022/09/11 03:59:29;;;;;;;2.75;1.40;;;;;;;12.47;79.96;94039.56;5011812;28;20123;-63
2022/09/11 04:01:55;;;;;;;3.70;1.30;;;;;;;12.45;79.90;94050.22;5011146;28;20388;-68
2022/09/11 04:04:22;;;;;;;3.03;1.20;;;;;;;12.51;79.83;94053.25;5011929;28;20048;-64
2022/09/11 04:06:49;;;;;;;3.67;1.30;;;;;;;12.50;79.80;94052.50;5011572;28;20042;-68
2022/09/11 04:09:16;;;;;;;3.13;1.30;;;;;;;12.51;79.68;94056.78;5010881;28;20296;-64
2022/09/11 04:11:43;;;;;;;4.32;1.30;;;;;;;12.38;79.91;94066.91;5010007;28;20041;-64
2022/09/11 04:14:09;;;;;;;2.80;1.50;;;;;;;12.32;81.10;94063.09;5011248;28;20072;-69
2022/09/11 04:16:36;;;;;;;4.30;1.40;;;;;;;12.45;80.27;94064.00;5011648;28;20053;-67
2022/09/11 04:19:03;;;;;;;6.03;3.03;;;;;;;12.42;80.50;94069.59;5011083;28;20446;-64
2022/09/11 04:21:30;;;;;;;3.75;1.67;;;;;;;12.33;81.09;94064.63;5011590;28;20058;-63
2022/09/11 04:23:59;;;;;;;3.45;1.65;;;;;;;12.42;80.50;94066.84;5010791;28;20557;-64
2022/09/11 04:26:28;;;;;;;3.13;1.45;;;;;;;12.50;80.09;94071.75;5011163;28;20042;-63
2022/09/11 04:28:56;;;;;;;3.83;1.50;;;;;;;12.55;80.13;94067.72;5009301;28;20414;-64
2022/09/11 04:31:22;;;;;;;3.22;1.40;;;;;;;12.42;80.67;94077.84;5011441;28;20384;-66
2022/09/11 04:33:49;;;;;;;3.30;1.50;;;;;;;12.55;80.27;94078.75;5010591;28;20408;-69
2022/09/11 04:36:18;;;;;;;4.90;1.42;;;;;;;12.57;80.60;94081.84;5010581;28;20657;-67
2022/09/11 04:38:45;;;;;;;2.38;1.33;;;;;;;12.49;80.81;94089.47;5011080;28;20111;-64
2022/09/11 04:41:14;;;;;;;4.17;1.30;;;;;;;12.64;79.99;94086.44;5010566;28;20056;-64
2022/09/11 04:43:41;;;;;;;2.85;1.40;;;;;;;12.65;79.83;94090.75;5010002;28;20041;-69
2022/09/11 04:46:13;;;;;;;3.35;1.60;;;;;;;12.53;80.63;94084.66;5009568;28;20075;-67
2022/09/11 04:48:50;;;;;;;2.95;1.40;;;;;;;12.50;80.70;94087.50;5010482;28;20076;-64
2022/09/11 04:51:26;;;;;;;3.35;1.50;;;;;;;12.50;80.56;94090.25;5010181;28;20490;-66
2022/09/11 04:53:58;;;;;;;2.97;1.30;;;;;;;12.47;80.61;94080.84;5010242;28;20441;-69
2022/09/11 04:56:28;;;;;;;3.75;1.50;;;;;;;12.61;80.23;94090.03;5011130;28;20041;-63
2022/09/11 04:59:00;;;;;;;5.43;1.80;;;;;;;12.51;80.67;94089.03;5025548;28;20042;-63
2022/09/11 05:01:29;;;;;;;4.05;1.30;;;;;;;12.42;80.74;94091.59;5011085;28;20050;-65
2022/09/11 05:03:56;;;;;;;3.15;1.50;;;;;;;12.49;80.93;94092.22;5009979;28;20042;-68
2022/09/11 05:06:22;;;;;;;4.10;1.40;;;;;;;12.55;80.66;94098.78;5010815;28;20433;-63
2022/09/11 05:08:49;;;;;;;3.40;1.45;;;;;;;12.54;80.68;94099.22;5009234;28;20052;-63
2022/09/11 05:11:19;;;;;;;3.50;1.50;;;;;;;12.62;80.37;94099.88;5009569;28;20430;-63
2022/09/11 05:13:46;;;;;;;2.90;1.30;;;;;;;12.60;80.19;94092.03;5010451;28;20576;-63
2022/09/11 05:16:15;;;;;;;3.55;1.70;;;;;;;12.63;80.47;94101.41;5010195;28;20051;-65
2022/09/11 05:18:47;;;;;;;3.70;1.50;;;;;;;12.67;80.17;94100.13;5010721;28;20045;-64
2022/09/11 05:21:16;;;;;;;3.05;1.60;;;;;;;12.79;79.26;94099.47;5010055;28;20048;-67
2022/09/11 05:23:47;;;;;;;2.70;1.48;;;;;;;12.79;79.17;94102.22;5009577;28;20556;-64
2022/09/11 05:26:28;;;;;;;3.92;1.40;;;;;;;12.75;79.53;94104.28;5008613;28;20046;-65
2022/09/11 05:28:57;;;;;;;4.47;1.50;;;;;;;12.93;79.16;94105.91;5009758;28;20054;-65
2022/09/11 05:31:24;;;;;;;3.70;1.40;;;;;;;12.88;78.74;94117.44;5010468;28;20505;-65
2022/09/11 05:33:53;;;;;;;4.57;1.60;;;;;;;12.67;80.32;94118.63;5009394;28;20053;-64
2022/09/11 05:36:20;;;;;;;4.53;1.60;;;;;;;12.83;79.46;94124.19;5010404;28;20099;-62
2022/09/11 05:38:47;;;;;;;3.05;1.40;;;;;;;12.89;79.64;94125.25;5008608;28;20038;-65
2022/09/11 05:41:15;;;;;;;3.83;1.50;;;;;;;12.92;79.07;94131.91;5009467;28;20068;-68
2022/09/11 05:43:42;;;;;;;3.30;1.40;;;;;;;12.99;78.39;94135.25;5010370;28;20045;-66
2022/09/11 05:46:12;;;;;;;3.22;1.60;;;;;;;13.15;78.11;94131.78;5009000;28;20045;-63
2022/09/11 05:48:39;;;;;;;2.88;1.52;;;;;;;13.16;78.68;94136.09;5010298;28;20479;-68
2022/09/11 05:51:20;;;;;;;3.55;1.55;;;;;;;13.17;78.00;94134.09;5008115;28;20053;-63
2022/09/11 05:53:57;;;;;;;3.50;1.60;;;;;;;13.29;77.62;94141.75;5009618;28;20049;-71
2022/09/11 05:56:24;;;;;;;3.70;1.40;;;;;;;13.20;77.59;94144.28;5009242;28;20111;-65
2022/09/11 05:58:52;;;;;;;2.80;1.40;;;;;;;13.50;77.03;94145.22;5007694;28;20426;-68
2022/09/11 06:01:20;;;;;;;3.28;1.40;;;;;;;13.61;76.55;94147.75;5009820;28;20050;-67
2022/09/11 06:03:48;;;;;;;2.60;1.25;;;;;;;13.52;76.25;94143.59;5009608;28;20092;-70
2022/09/11 06:06:17;;;;;;;3.75;1.58;;;;;;;13.56;75.95;94149.81;5014348;28;20817;-65
2022/09/11 06:08:46;;;;;;;3.20;1.30;;;;;;;13.62;76.19;94154.81;5014732;28;20602;-66
2022/09/11 06:11:16;;;;;;;2.50;1.30;;;;;;;13.84;75.76;94157.84;5015200;28;20045;-64
2022/09/11 06:13:45;;;;;;;3.95;1.40;;;;;;;13.94;75.81;94157.59;5003228;28;20104;-70
2022/09/11 06:16:17;;;;;;;3.28;1.30;;;;;;;13.85;75.95;94157.41;5015180;28;20050;-66
2022/09/11 06:18:49;;;;;;;3.05;1.40;;;;;;;13.76;76.80;94168.25;5016350;28;20479;-64
2022/09/11 06:21:18;;;;;;;4.07;1.40;;;;;;;14.00;75.58;94168.88;5001370;28;20871;-65
2022/09/11 06:23:50;;;;;;;3.20;1.38;;;;;;;13.86;75.54;94169.22;5015536;28;20056;-67
2022/09/11 06:26:21;;;;;;;2.80;1.33;;;;;;;13.64;76.91;94166.19;5015248;28;20445;-64
2022/09/11 06:28:49;;;;;;;2.95;1.50;;;;;;;13.73;76.36;94167.16;5016021;28;20107;-67
2022/09/11 06:31:21;;;;;;;3.17;1.40;;;;;;;13.80;76.63;94168.94;5014450;28;20923;-64
2022/09/11 06:33:49;;;;;;;4.70;1.30;;;;;;;13.82;76.72;94172.06;5015396;28;20107;-70
2022/09/11 06:36:28;;;;;;;3.92;1.50;;;;;;;14.12;75.21;94170.16;5015255;28;20227;-64
2022/09/11 06:38:57;;;;;;;3.00;1.40;;;;;;;13.98;75.24;94179.56;5015134;28;20411;-64
2022/09/11 06:41:25;;;;;;;5.28;1.40;;;;;;;14.25;74.74;94173.00;5015682;28;20050;-65
2022/09/11 06:43:52;;;;;;;3.30;1.42;;;;;;;14.25;74.67;94171.03;5014840;28;20052;-65
2022/09/11 06:46:21;;;;;;;2.63;1.40;;;;;;;14.29;73.84;94171.72;5015254;28;20414;-69
2022/09/11 06:48:49;;;;;;;3.38;1.30;;;;;;;14.65;73.16;94172.78;5015881;28;20069;-72
2022/09/11 06:51:19;;;;;;;4.25;1.52;;;;;;;14.66;72.92;94166.06;5015211;28;20139;-65
2022/09/11 06:53:46;;;;;;;4.20;1.60;;;;;;;14.87;72.42;94167.44;5014986;28;20052;-66
2022/09/11 06:56:16;;;;;;;2.70;1.30;;;;;;;14.84;72.30;94165.56;5013006;28;20104;-70
2022/09/11 06:58:44;;;;;;;3.47;1.50;;;;;;;14.55;73.17;94169.84;5015814;28;20054;-66
2022/09/11 07:01:14;;;;;;;4.78;1.50;;;;;;;14.63;72.82;94173.22;5014404;28;20648;-68
2022/09/11 07:03:45;;;;;;;4.20;1.55;;;;;;;14.74;72.35;94176.47;5015448;28;20587;-66
2022/09/11 07:06:17;;;;;;;2.90;1.38;;;;;;;15.02;71.23;94171.38;5014753;28;20056;-64
2022/09/11 07:08:50;;;;;;;3.45;1.40;;;;;;;15.18;70.76;94176.06;5015310;28;20050;-65
2022/09/11 07:11:18;;;;;;;2.97;1.13;;;;;;;15.01;70.87;94180.09;5014634;28;21727;-65
2022/09/11 07:13:45;;;;;;;3.67;1.50;;;;;;;15.16;70.98;94179.25;5010558;28;20041;-69
2022/09/11 07:16:12;;;;;;;2.70;1.40;;;;;;;15.44;69.57;94184.41;5011410;28;20054;-66
2022/09/11 07:18:42;;;;;;;3.65;1.20;;;;;;;15.35;69.95;94183.06;5012316;28;20049;-65
2022/09/11 07:21:11;;;;;;;2.97;1.35;;;;;;;15.55;69.29;94182.88;5012079;28;20099;-65
2022/09/11 07:23:40;;;;;;;3.90;1.40;;;;;;;15.62;68.61;94181.88;5011755;28;20389;-65
2022/09/11 07:26:10;;;;;;;4.53;1.25;;;;;;;15.85;67.77;94182.78;5009874;28;20337;-70
2022/09/11 07:28:38;;;;;;;3.72;1.40;;;;;;;15.44;69.48;94189.94;5012344;28;20042;-64
2022/09/11 07:31:06;;;;;;;3.60;1.60;;;;;;;15.49;69.88;94189.38;5010954;28;20500;-64
2022/09/11 07:33:33;;;;;;;3.72;1.48;;;;;;;15.48;69.81;94191.38;5011680;28;20459;-66
2022/09/11 07:35:59;;;;;;;3.30;1.47;;;;;;;15.20;70.57;94197.75;5009322;28;20053;-66
2022/09/11 07:38:28;;;;;;;2.60;1.45;;;;;;;15.21;70.53;94202.81;5012143;28;20042;-70
2022/09/11 07:40:55;;;;;;;4.07;1.60;;;;;;;14.43;72.54;94200.94;5011310;28;20046;-66
2022/09/11 07:43:22;;;;;;;2.72;1.40;;;;;;;14.78;71.48;94199.25;5012086;28;20487;-70
2022/09/11 07:45:52;;;;;;;3.45;1.55;;;;;;;14.74;71.65;94195.03;5011148;28;20170;-64
2022/09/11 07:48:19;;;;;;;4.10;1.60;;;;;;;15.04;69.95;94195.81;5009896;28;20052;-65
2022/09/11 07:51:01;;;;;;;3.13;1.38;;;;;;;14.99;70.44;94205.44;5012101;28;20056;-64
2022/09/11 07:53:33;;;;;;;3.92;1.40;;;;;;;14.93;71.50;94207.94;5010759;28;20289;-69
2022/09/11 07:56:02;;;;;;;3.28;1.50;;;;;;;15.41;70.01;94208.16;5010701;28;20050;-64
2022/09/11 07:58:37;;;;;;;3.10;1.50;;;;;;;15.83;68.68;94215.66;5012053;28;20067;-64
2022/09/11 08:01:13;;;;;;;4.17;1.60;;;;;;;16.03;67.81;94215.44;5010688;28;20447;-73
2022/09/11 08:03:41;;;;;;;2.80;1.42;;;;;;;16.05;66.89;94215.78;5011157;28;20046;-65
2022/09/11 08:06:12;;;;;;;4.07;1.55;;;;;;;15.44;68.88;94225.88;5010968;28;20076;-70
2022/09/11 08:08:42;;;;;;;4.13;1.70;;;;;;;15.62;68.59;94220.59;5011490;28;20064;-65
2022/09/11 08:11:15;;;;;;;3.88;1.80;;;;;;;15.47;68.90;94223.00;5010457;28;20049;-65
2022/09/11 08:13:42;;;;;;;3.67;1.50;;;;;;;15.91;67.75;94228.06;5011388;28;20048;-67
2022/09/11 08:16:09;;;;;;;2.60;1.52;;;;;;;15.92;67.76;94227.63;5010288;28;20050;-66
2022/09/11 08:18:36;;;;;;;5.60;2.20;;;;;;;15.93;68.05;94220.09;5011131;28;20058;-65
2022/09/11 08:21:07;;;;;;;4.22;1.60;;;;;;;16.22;67.10;94222.75;5010783;28;20102;-66
2022/09/11 08:23:40;;;;;;;4.50;1.88;;;;;;;16.40;67.18;94224.94;5010443;28;20046;-76
2022/09/11 08:26:09;;;;;;;4.40;1.50;;;;;;;16.40;66.05;94226.91;4996860;28;20457;-66
2022/09/11 08:28:37;;;;;;;3.60;1.60;;;;;;;16.25;66.48;94230.16;5011502;28;20388;-66
2022/09/11 08:31:05;;;;;;;3.85;1.60;;;;;;;16.23;66.98;94238.13;5009949;28;20555;-68
2022/09/11 08:33:32;;;;;;;5.10;1.60;;;;;;;16.35;65.92;94231.78;5009953;28;20050;-72
2022/09/11 08:36:01;;;;;;;3.10;1.70;;;;;;;16.70;65.35;94231.06;5005039;28;20089;-66
2022/09/11 08:38:28;;;;;;;4.87;1.60;;;;;;;16.90;64.23;94237.13;5008917;28;20054;-65
2022/09/11 08:41:10;;;;;;;4.30;1.80;;;;;;;17.37;62.82;94233.47;5010482;28;20054;-69
2022/09/11 08:43:44;;;;;;;3.03;1.80;;;;;;;16.76;65.12;94235.59;5010893;28;20058;-69
2022/09/11 08:46:12;;;;;;;3.03;1.67;;;;;;;16.85;64.17;94239.72;5009714;28;20042;-66
2022/09/11 08:48:44;;;;;;;4.38;2.00;;;;;;;16.40;65.78;94236.00;5009890;28;20057;-68
2022/09/11 08:51:15;;;;;;;3.03;1.67;;;;;;;16.46;66.29;94237.00;5010055;28;20045;-72
2022/09/11 08:53:43;;;;;;;3.00;1.58;;;;;;;16.69;65.79;94241.38;5011070;28;20056;-64
2022/09/11 08:56:21;;;;;;;3.28;1.90;;;;;;;17.56;64.02;94236.38;5000322;28;20045;-64
2022/09/11 08:59:21;;;;;;;3.40;1.70;;;;;;;18.52;59.34;94228.34;5004663;28;20052;-65
2022/09/11 09:01:59;;;;;;;5.43;1.80;;;;;;;20.36;54.68;94235.75;5009425;28;20885;-70
2022/09/11 09:05:03;;;;;;;4.10;1.90;;;;;;;19.48;54.93;94237.38;5008738;28;20332;-66
2022/09/11 09:07:42;;;;;;;3.53;1.67;;;;;;;20.55;52.71;94228.84;5009403;28;20240;-66
2022/09/11 09:10:42;;;;;;;3.58;1.90;;;;;;;17.77;60.17;94237.59;5009796;28;20048;-67
2022/09/11 09:13:09;;;;;;;4.68;2.00;;;;;;;16.43;67.95;94239.88;5009519;28;20050;-68
2022/09/11 09:15:40;;;;;;;4.43;2.30;;;;;;;16.74;66.76;94237.25;5010284;28;20499;-67
2022/09/11 09:18:13;;;;;;;4.00;1.97;;;;;;;16.46;67.85;94245.31;5010060;28;20053;-66
2022/09/11 09:20:59;;;;;;;5.15;2.20;;;;;;;16.18;68.93;94247.00;5010511;28;20123;-65
2022/09/11 09:23:34;;;;;;;6.13;2.17;;;;;;;15.76;71.42;94260.94;5009858;28;20123;-66
2022/09/11 09:26:01;;;;;;;4.80;2.35;;;;;;;15.66;71.03;94260.00;5009840;28;20426;-66
2022/09/11 09:28:51;;;;;;;5.55;2.63;;;;;;;15.40;72.80;94259.16;5010418;28;20137;-69
2022/09/11 09:31:27;;;;;;;3.83;2.00;;;;;;;16.61;68.39;94247.59;5009543;28;20835;-65
2022/09/11 09:34:00;;;;;;;9.35;2.53;;;;;;;16.96;67.16;94246.44;5009982;28;20054;-66
2022/09/11 09:36:45;;;;;;;4.50;2.30;;;;;;;16.42;67.93;94243.84;5009989;28;20099;-67
2022/09/11 09:39:15;;;;;;;4.28;2.63;;;;;;;16.88;66.72;94245.13;5009873;28;20107;-68
2022/09/11 09:42:04;;;;;;;4.65;2.40;;;;;;;16.17;69.05;94246.22;5009051;28;20054;-67
2022/09/11 09:45:03;;;;;;;4.00;2.20;;;;;;;16.50;68.23;94250.72;5008786;28;20407;-65
2022/09/11 09:47:31;;;;;;;5.55;2.42;;;;;;;17.32;65.76;94249.94;5009234;28;21770;-66
2022/09/11 09:49:58;;;;;;;3.65;2.05;;;;;;;17.55;63.05;94249.47;5009848;28;20394;-66
2022/09/11 09:52:32;;;;;;;5.13;2.10;;;;;;;17.48;63.19;94244.19;5010157;28;20042;-69
2022/09/11 09:55:01;;;;;;;4.88;2.13;;;;;;;17.85;61.06;94244.44;5009452;28;20045;-66
2022/09/11 09:57:33;;;;;;;4.13;2.20;;;;;;;17.99;60.63;94245.91;5008581;28;20049;-67
2022/09/11 10:00:02;;;;;;;3.55;2.13;;;;;;;19.00;57.94;94244.66;5009920;28;20115;-67
2022/09/11 10:02:53;;;;;;;3.78;2.08;;;;;;;20.41;54.80;94243.47;5010336;28;20526;-66
2022/09/11 10:05:30;;;;;;;5.05;2.70;;;;;;;18.67;59.60;94242.41;5009324;28;20688;-66
2022/09/11 10:08:05;;;;;;;4.50;2.53;;;;;;;19.07;58.03;94238.78;5009430;28;20042;-77
2022/09/11 10:10:35;;;;;;;3.83;2.30;;;;;;;18.21;60.13;94236.72;5010094;28;20123;-67
2022/09/11 10:13:24;;;;;;;4.57;2.40;;;;;;;19.19;58.49;94239.88;5009698;28;20515;-66
2022/09/11 10:15:54;;;;;;;5.05;2.45;;;;;;;17.23;63.98;94236.78;5010035;28;20407;-62
2022/09/11 10:18:42;;;;;;;4.35;2.40;;;;;;;17.54;61.81;94234.03;5010149;28;20050;-65
2022/09/11 10:21:12;;;;;;;4.47;2.20;;;;;;;17.50;62.68;94238.19;5009479;28;20054;-67
2022/09/11 10:23:59;;;;;;;4.60;2.50;;;;;;;17.48;62.70;94235.09;5009995;28;20050;-67
2022/09/11 10:26:34;;;;;;;3.90;2.33;;;;;;;17.15;63.01;94230.72;5008976;28;20123;-66
2022/09/11 10:29:10;;;;;;;4.30;2.60;;;;;;;17.04;64.38;94232.31;5009485;28;20498;-66
2022/09/11 10:31:48;;;;;;;5.57;2.50;;;;;;;17.45;63.03;94224.91;5010234;28;20045;-66
2022/09/11 10:34:21;;;;;;;4.40;2.45;;;;;;;17.64;61.46;94231.34;5009043;28;21899;-66
2022/09/11 10:37:06;;;;;;;3.83;2.20;;;;;;;18.70;58.69;94225.59;5010202;28;20061;-67
2022/09/11 10:39:35;;;;;;;4.35;2.03;;;;;;;21.56;51.14;94214.66;5009245;28;20257;-67
2022/09/11 10:42:26;;;;;;;3.55;1.90;;;;;;;22.72;46.42;94217.03;5009339;28;20050;-66
2022/09/11 10:45:07;;;;;;;3.85;1.80;;;;;;;22.02;48.82;94220.53;5000873;28;20377;-65
2022/09/11 10:47:34;;;;;;;5.05;2.00;;;;;;;19.55;53.97;94219.56;5010793;28;20406;-66
2022/09/11 10:50:21;;;;;;;2.90;1.80;;;;;;;18.07;60.71;94221.38;5012900;28;20050;-65
2022/09/11 10:52:56;;;;;;;3.05;1.70;;;;;;;18.08;59.58;94225.72;5012566;28;20495;-64
2022/09/11 10:55:40;;;;;;;2.80;1.75;;;;;;;17.94;59.11;94221.50;5012392;28;20050;-66
2022/09/11 10:58:21;;;;;;;3.22;1.83;;;;;;;18.14;58.24;94224.66;5012564;28;20476;-69
2022/09/11 11:00:50;;;;;;;3.13;1.88;;;;;;;17.78;59.62;94223.22;5013455;28;20380;-69
2022/09/11 11:03:24;;;;;;;4.37;1.93;;;;;;;17.93;59.89;94222.75;5012313;28;20789;-66
2022/09/11 11:06:24;;;;;;;3.10;1.80;;;;;;;16.91;62.27;94216.50;5013293;28;20104;-67
2022/09/11 11:09:01;;;;;;;3.10;2.00;;;;;;;17.38;60.76;94217.59;5012703;28;20513;-66
2022/09/11 11:11:45;;;;;;;3.03;1.90;;;;;;;17.57;59.99;94218.50;5013327;28;20054;-66
2022/09/11 11:14:21;;;;;;;3.05;1.90;;;;;;;17.39;60.51;94219.16;5012629;28;20095;-66
2022/09/11 11:17:04;;;;;;;3.43;1.80;;;;;;;17.85;60.13;94215.88;5012020;28;20050;-71
2022/09/11 11:19:41;;;;;;;3.45;1.90;;;;;;;18.99;57.05;94218.06;5012255;28;20042;-67
2022/09/11 11:22:36;;;;;;;3.45;1.50;;;;;;;20.43;52.06;94221.47;5012296;28;20054;-66
2022/09/11 11:25:21;;;;;;;2.90;1.90;;;;;;;20.88;50.30;94213.31;5012140;28;20037;-68
2022/09/11 11:28:10;;;;;;;3.03;1.60;;;;;;;21.18;49.10;94214.16;5012972;28;20388;-66
2022/09/11 11:31:30;;;;;;;3.57;1.80;;;;;;;21.41;47.88;94218.19;5011986;28;20262;-66
2022/09/11 11:34:15;;;;;;;2.95;1.65;;;;;;;20.88;48.51;94216.09;4987305;28;20052;-65
2022/09/11 11:36:47;;;;;;;3.00;1.80;;;;;;;20.99;47.41;94212.75;5012668;28;20115;-66
2022/09/11 11:39:16;;;;;;;3.05;1.65;;;;;;;21.51;47.94;94210.50;5011998;28;20093;-68
2022/09/11 11:41:50;;;;;;;4.65;1.70;;;;;;;22.20;46.53;94199.97;5011338;28;20085;-66
2022/09/11 11:44:34;;;;;;;2.87;1.60;;;;;;;22.02;45.22;94212.16;5011560;28;20500;-66
2022/09/11 11:47:05;;;;;;;4.35;1.60;;;;;;;21.21;48.07;94212.44;5011847;28;20424;-68
2022/09/11 11:49:55;;;;;;;2.88;1.60;;;;;;;21.66;48.56;94213.31;5012882;28;20058;-66
2022/09/11 11:53:08;;;;;;;3.10;1.85;;;;;;;21.84;47.90;94213.13;5011727;28;20127;-69
2022/09/11 11:55:57;;;;;;;3.13;1.70;;;;;;;21.74;46.71;94208.88;4969727;28;21216;-66
2022/09/11 11:58:50;;;;;;;3.87;1.60;;;;;;;21.28;47.93;94204.47;4970427;28;20058;-67
2022/09/11 12:01:30;;;;;;;3.05;1.67;;;;;;;20.39;48.99;94211.75;5003575;28;21772;-66